Tiempo atmosférico en la estación meteorológica de Ayamonte, Huelva (2 m.)



Fecha
DESCASC
Temp. máxima en grados centígrados (hora)
DESCASC
Temp. mínima en grados centígrados (hora)
DESCASC
Temp. media en grados centígrados
DESCASC
Racha de viento máxima en m/sg (hora)
DESCASC
Velocidad máxima media en intervalos de 10 minutos(hora)
DESCASC
Precipitaciones diarias en mm
DESCASC
Precipitaciones de 00:00 a 06:00 en mm
DESCASC
Precipitaciones de 06:00 a 12:00 en mm
DESCASC
Precipitaciones de 12:00 a 18:00 en mm
DESCASC
Precipitaciones de 18:00 a 24:00 en mm
DESCASC
13-06-2019 26.8 (14:30) 13.8 (07:30) 20.3 10.83 (05:40) 5.28 (01:40) 0 0 0 0 0
12-06-2019 26.3 (18:00) 16.9 (07:20) 21.6 8.89 (04:00) 5.28 (18:10) 0 0 0 0 0
11-06-2019 28.3 (20:30) 15.3 (07:30) 21.8 11.67 (00:30) 5.56 (08:30) 0 0 0 0 0
10-06-2019 24.8 (14:50) 16 (07:00) 20.4 11.67 (17:10) 6.94 (17:10) 0 0 0 0 0
09-06-2019 26.7 (19:40) 14.2 (00:00) 20.5 10.28 (02:20) 5.56 (16:30) 0 0 0 0 0
08-06-2019 29.3 (14:20) 15 (00:00) 22.1 10.28 (02:50) 5.28 (15:40) 0 0 0 0 0
07-06-2019 26.6 (17:10) 14.8 (00:00) 20.7 9.17 (02:20) 5.28 (18:20) 0 0 0 0 0
06-06-2019 22.9 (15:20) 13.9 (00:00) 18.4 13.06 (17:10) 8.06 (18:30) 0 0 0 0 0
05-06-2019 25.8 (15:20) 14.6 (00:00) 20.2 11.11 (00:20) 5.28 (16:40) 0 0 0 0 0
04-06-2019 27.1 (19:00) 17.8 (00:00) 22.4 10.56 (16:30) 6.67 (16:30) 0 0 0 0 0
03-06-2019 30.2 (11:50) 16.8 (00:00) 23.5 9.17 (22:50) 5 (16:20) 0 0 0 0 0
02-06-2019 29.2 (13:10) 15.6 (00:00) 22.4 7.78 (19:50) 5 (16:40) 0 0 0 0 0
01-06-2019 28.4 (13:30) 15.5 (00:00) 21.9 6.11 (16:40) 3.33 (16:30) 0 0 0 0 0
31-05-2019 29.3 (16:20) 15.2 (00:00) 22.2 5.83 (16:50) 3.89 (17:00) 0 0 0 0 0
30-05-2019 29.7 (15:40) 15.3 (00:00) 22.5 6.94 (16:40) 4.17 (16:40) 0 0 0 0 0
29-05-2019 29.2 (16:20) 19.4 (00:00) 24.3 6.67 (11:10) 3.61 (16:30) 0 0 0 0 0
28-05-2019 29.4 (19:40) 16.8 (00:00) 23.1 11.67 (03:00) 5.56 (02:30) 0 0 0 0 0
27-05-2019 30.1 (12:30) 15.6 (00:00) 22.9 9.17 (17:50) 5.83 (18:50) 0 0 0 0 0
26-05-2019 27 (16:50) 14.6 (00:00) 20.8 9.44 (20:10) 5.83 (18:50) 0 0 0 0 0
25-05-2019 26.9 (19:10) 17.3 (00:00) 22.1 10.83 (02:30) 5.28 (02:30) 0 0 0 0 0
24-05-2019 30.7 (18:50) 14.8 (00:00) 22.8 11.94 (02:00) 6.11 (06:30) 0 0 0 0 0
23-05-2019 31 (14:40) 17.3 (00:00) 24.1 10 (23:30) 5.56 (18:20) 0 0 0 0 0
22-05-2019 24.2 (12:10) 15.8 (00:00) 20 8.61 (00:20) 4.17 (02:40) 0 0 0 0 0
21-05-2019 25.6 (14:10) 15 (07:20) 20.3 9.44 (23:59) 6.11 (16:20) 0 0 0 0 0
20-05-2019 24.8 (12:50) 13.6 (07:30) 19.2 9.72 (23:50) 6.11 (17:10) 0 0 0 0 0
19-05-2019 22.7 (17:10) 15.1 (00:00) 18.9 11.11 (16:20) 6.67 (16:10) 0 0 0 0 0
18-05-2019 24.3 (17:20) 13.6 (00:00) 18.9 9.17 (10:40) 4.17 (00:10) 0 0 0 0 0
17-05-2019 24.7 (16:50) 13.6 (00:00) 19.2 15.28 (02:10) 6.94 (02:00) 0 0 0 0 0

Gráficas

Temp. máximas Temp. mínimas Temp. medias Precipitaciones Rachas de viento máximas Velocidades máximas media en intervalos de 10 minutos

Datos horarios

Fecha y hora oficial Temperatura (ºC) Velocidad del viento (km/h) Dirección del viento Racha (km/h) Dirección de racha Precipitación (mm) Presión (hPa) Tendencia (hPa) Humedad (%)
2019-06-15 23:00:00 21.8 8 Noroeste 26 Noroeste 0 1016.7 0.5 50
2019-06-15 22:00:00 19.5 5 Sudoeste 17 Sudoeste 0 1016.2 -0.4 64
2019-06-15 21:00:00 21.4 13 Sudoeste 23 Oeste 0 1016.2 -1.3 55
2019-06-15 20:00:00 22.6 13 Sudoeste 30 Oeste 0 1016.2 -1.5 53
2019-06-15 19:00:00 23.1 18 Sudoeste 35 Sudoeste 0 1016.6 -1.8 48
2019-06-15 18:00:00 23.5 21 Sudoeste 37 Oeste 0 1017.5 -1.1 47
2019-06-15 17:00:00 23.9 19 Sudoeste 37 Sudoeste 0 1017.7 -1.5 48
2019-06-15 16:00:00 23.4 18 Sudoeste 30 Sudoeste 0 1018.4 -1.1 51
2019-06-15 15:00:00 23.3 19 Sudoeste 29 Sudoeste 0 1018.6 -1 52
2019-06-15 14:00:00 22.8 17 Sudoeste 27 Sudoeste 0 1019.2 -0.6 51
2019-06-15 13:00:00 23.3 9 Noroeste 20 Noroeste 0 1019.5 -0.6 41
2019-06-15 12:00:00 22.5 7 Noroeste 20 Norte 0 1019.6 -0.2 48
2019-06-15 11:00:00 20.6 6 Norte 22 Noroeste 0 1019.8 0.4 56
2019-06-15 10:00:00 19 5 Norte 18 Nordeste 0 1020.1 1.1 65
2019-06-15 09:00:00 16.8 5 Norte 17 Noroeste 0 1019.8 1 75
2019-06-15 08:00:00 15.2 8 Norte 18 Noroeste 0 1019.4 0.6 82
2019-06-15 07:00:00 15.2 4 Norte 24 Noroeste 0 1019 0.1 79
2019-06-15 06:00:00 15.4 10 Noroeste 21 Norte 0 1018.8 -0.1 77
2019-06-15 05:00:00 15.7 8 Norte 20 Noroeste 0 1018.8 -0.5 74
2019-06-15 04:00:00 15.9 9 Norte 27 Norte 0 1018.9 -0.4 70
2019-06-15 03:00:00 16.5 10 Noroeste 26 Noroeste 0 1018.9 -0.3 63
2019-06-15 02:00:00 17.1 12 Norte 27 Norte 0 1019.3 0.7 57
2019-06-15 01:00:00 18 9 Noroeste 26 Noroeste 0 1019.3 1.8 52
2019-06-15 00:00:00 18.6 9 Noroeste 22 Noroeste 0 1019.2 2.7 50
2019-06-14 23:00:00 19.7 10 Noroeste 23 Noroeste 0 1018.6 2.4 50
2019-06-14 22:00:00 20.7 8 Noroeste 24 Noroeste 0 1017.5 1.2 49
2019-06-14 21:00:00 22.1 4 Noroeste 26 Sudoeste 0 1016.5 0.1 48
2019-06-14 20:00:00 20.8 18 Sudoeste 46 Sudoeste 0 1016.2 0 58
2019-06-14 19:00:00 20.9 23 Sudoeste 46 Sudoeste 0 1016.3 -0.1 57
2019-06-14 18:00:00 21.7 23 Sudoeste 45 Sudoeste 0 1016.4 -0.4 55
2019-06-14 17:00:00 22.3 25 Sudoeste 42 Sudoeste 0 1016.2 -0.8 52
2019-06-14 16:00:00 22.5 24 Sudoeste 40 Sudoeste 0 1016.4 -0.7 54
2019-06-14 15:00:00 21.7 23 Sudoeste 37 Sudoeste 0 1016.8 -0.2 57
2019-06-14 14:00:00 20.2 22 Sudoeste 35 Sudoeste 0 1017 0 60
2019-06-14 13:00:00 20.6 18 Sudoeste 32 Sudoeste 0 1017.1 0.7 57
2019-06-14 12:00:00 19.8 14 Sur 23 Sudoeste 0 1017 1.6 58
2019-06-14 11:00:00 20.4 10 Oeste 27 Oeste 0 1017 2.4 54
2019-06-14 10:00:00 17.4 8 Noroeste 18 Noroeste 0 1016.4 2.5 61
2019-06-14 09:00:00 16 9 Noroeste 21 Noroeste 0 1015.4 2.1 71
2019-06-14 08:00:00 14.5 7 Noroeste 18 Noroeste 0 1014.6 2.1 76
2019-06-14 07:00:00 14.4 9 Noroeste 27 Noroeste 0 1013.9 1.5 73
2019-06-14 06:00:00 14.8 12 Noroeste 34 Noroeste 0 1013.3 0.9 69
2019-06-14 05:00:00 15.2 12 Noroeste 33 Noroeste 0 1012.5 0.3 63
2019-06-14 04:00:00 15.8 13 Noroeste 33 Noroeste 0 1012.4 0.2 60
2019-06-14 03:00:00 16.5 12 Noroeste 35 Noroeste 0 1012.4 1 56
2019-06-14 02:00:00 17.4 17 Noroeste 37 Norte 0 1012.2 1.4 54
2019-06-14 01:00:00 17.9 13 Noroeste 35 Norte 0 1012.2 2.1 53
2019-06-14 00:00:00 19.1 14 Noroeste 32 Noroeste 0 1011.4 1.7 50
2019-06-13 23:00:00 20.4 10 Noroeste 25 Norte 0 1010.8 1.5 47
2019-06-13 22:00:00 21.6 6 Noroeste 21 Sudoeste 0 1010.1 1.1 49
2019-06-13 21:00:00 22 14 Oeste 29 Sudoeste 0 1009.7 0.6 50
2019-06-13 20:00:00 23.4 16 Sudoeste 33 Sudoeste 0 1009.3 -0.1 47
2019-06-13 19:00:00 25.1 19 Sudoeste 32 Sudoeste 0 1009 -0.6 43
2019-06-13 18:00:00 24.7 18 Sudoeste 31 Sudoeste 0 1009.1 -0.8 44
2019-06-13 17:00:00 23.8 18 Sudoeste 32 Sudoeste 0 1009.4 -0.6 48
2019-06-13 16:00:00 23.8 17 Sudoeste 28 Sudoeste 0 1009.6 -0.8 47
2019-06-13 15:00:00 23.9 14 Sudoeste 26 Sudoeste 0 1009.9 -0.8 46
2019-06-13 14:00:00 25 3 Noroeste 19 Noroeste 0 1010 -0.8 36
2019-06-13 13:00:00 23.3 8 Noroeste 27 Noroeste 0 1010.4 -0.6 41
2019-06-13 12:00:00 21.5 10 Norte 25 Noroeste 0 1010.7 0 48
2019-06-13 11:00:00 19.2 9 Norte 33 Noroeste 0 1010.8 0.6 53
2019-06-13 10:00:00 16.8 14 Norte 37 Norte 0 1011 1.2 61
2019-06-13 09:00:00 15.2 13 Norte 32 Norte 0 1010.7 1.1 66
2019-06-13 08:00:00 14 14 Norte 35 Noroeste 0 1010.2 0.6 70
2019-06-13 07:00:00 14 15 Noroeste 34 Noroeste 0 1009.8 0.1 69
2019-06-13 06:00:00 14.5 14 Norte 39 Noroeste 0 1009.6 0 66
2019-06-13 05:00:00 15 15 Noroeste 36 Norte 0 1009.6 -0.4 63
2019-06-13 04:00:00 15.8 13 Noroeste 36 Norte 0 1009.7 -0.2 59
2019-06-13 03:00:00 16.9 15 Noroeste 37 Norte 0 1009.6 -0.3 52
2019-06-13 02:00:00 18.2 15 Noroeste 38 Norte 0 1010 0.8 47
2019-06-13 01:00:00 19.8 14 Noroeste 33 Norte 0 1009.9 1.2 40
2019-06-13 00:00:00 21.5 10 Noroeste 26 Noroeste 0 1009.9 1.4 38
2019-06-12 23:00:00 21.1 6 Noroeste 18 Noroeste 0 1009.2 0.7 43
2019-06-12 22:00:00 19.7 9 Oeste 28 Sudoeste 0 1008.7 -0.1 65
2019-06-12 21:00:00 21.8 15 Sudoeste 28 Oeste 0 1008.5 -1 62
2019-06-12 20:00:00 23.6 18 Sudoeste 32 Sudoeste 0 1008.5 -1.4 58
2019-06-12 19:00:00 25 18 Sudoeste 31 Sudoeste 0 1008.8 -1.5 56
2019-06-12 18:00:00 26 16 Sudoeste 30 Oeste 0 1009.5 -1.5 55
2019-06-12 17:00:00 24.5 14 Sudoeste 24 Sudoeste 0 1009.9 -1.7 57
2019-06-12 16:00:00 25.7 13 Sudoeste 22 Oeste 0 1010.3 -1.6 53
2019-06-12 15:00:00 25.6 10 Sudoeste 19 Sudoeste 0 1011 -1 53
2019-06-12 14:00:00 24.6 9 Sudoeste 17 Sudoeste 0 1011.6 -0.3 53
2019-06-12 13:00:00 24.2 7 Sudoeste 17 Sur 0 1011.9 0.4 53
2019-06-12 12:00:00 24.1 7 Sudoeste 17 Sur 0 1012 1 53
2019-06-12 11:00:00 23.5 5 Este 17 Noroeste 0 1011.9 1.5 40
2019-06-12 10:00:00 20.7 9 Noroeste 21 Norte 0 1011.5 1.5 45
2019-06-12 09:00:00 18.9 9 Norte 23 Norte 0 1011 1.3 49
2019-06-12 08:00:00 17.2 10 Norte 25 Noroeste 0 1010.4 0.6 52
2019-06-12 07:00:00 17 10 Norte 24 Noroeste 0 1010 -0.1 52
2019-06-12 06:00:00 17.6 13 Norte 27 Norte 0 1009.7 -0.7 51
2019-06-12 05:00:00 18.1 15 Norte 30 Norte 0 1009.8 -0.9 50
2019-06-12 04:00:00 18.5 13 Norte 32 Noroeste 0 1010.1 -0.9 50
2019-06-12 03:00:00 19.5 12 Noroeste 27 Norte 0 1010.4 -0.3 48
2019-06-12 02:00:00 20.6 13 Noroeste 28 Noroeste 0 1010.7 0.5 46
2019-06-12 01:00:00 21.7 12 Noroeste 26 Norte 0 1011 1.5 44
2019-06-12 00:00:00 21.6 8 Noroeste 22 Norte 0 1010.7 1.5 45
2019-06-11 23:00:00 22.2 2 Noroeste 9 Noroeste 0 1010.2 1 36
2019-06-11 22:00:00 25.5 0 Calma 16 Nordeste 0 1009.5 0 33
2019-06-11 21:00:00 27.4 4 Norte 20 Norte 0 1009.2 -0.7 32
2019-06-11 20:00:00 26.2 9 Oeste 23 Sudoeste 0 1009.2 -1.3 45
2019-06-11 19:00:00 26.7 12 Sudoeste 26 Sudoeste 0 1009.5 -1.3 46
2019-06-11 18:00:00 26.1 17 Sudoeste 32 Sudoeste 0 1009.9 -1.6 48
2019-06-11 17:00:00 26.3 18 Sudoeste 31 Sudoeste 0 1010.5 -1.4 49
2019-06-11 16:00:00 24.9 18 Sudoeste 32 Sudoeste 0 1010.8 -1.8 52
2019-06-11 15:00:00 23.1 10 Sudoeste 28 Oeste 0 1011.5 -1.3 50
2019-06-11 14:00:00 25.9 6 Noroeste 24 Norte 0 1011.9 -1.3 43
2019-06-11 13:00:00 25.1 9 Norte 25 Nordeste 0 1012.6 -0.9 45
2019-06-11 12:00:00 23.1 6 Norte 27 Noroeste 0 1012.8 -0.1 50
2019-06-11 11:00:00 20.8 8 Norte 22 Noroeste 0 1013.2 0.6 56
2019-06-11 10:00:00 18.7 11 Norte 35 Noroeste 0 1013.5 0.6 62
2019-06-11 09:00:00 16.7 15 Noroeste 42 Noroeste 0 1012.9 0.1 69
2019-06-11 08:00:00 15.7 18 Norte 41 Norte 0 1012.6 -0.8 73
2019-06-11 07:00:00 15.5 9 Noroeste 35 Noroeste 0 1012.9 -1 70
2019-06-11 06:00:00 15.6 18 Noroeste 38 Noroeste 0 1012.8 -1.4 67
2019-06-11 05:00:00 16 16 Noroeste 34 Norte 0 1013.4 -1.2 61
2019-06-11 04:00:00 16.3 14 Norte 36 Noroeste 0 1013.9 -1.1 57
2019-06-11 03:00:00 17 14 Noroeste 37 Noroeste 0 1014.2 -0.8 54
2019-06-11 02:00:00 18.1 18 Noroeste 42 Noroeste 0 1014.6 0.1 52
2019-06-11 01:00:00 19.3 15 Noroeste 42 Noroeste 0 1015 1 48
2019-06-11 00:00:00 20.8 19 Noroeste 40 Norte 0 1015 1.2 46
2019-06-10 23:00:00 22.1 17 Noroeste 31 Noroeste 0 1014.5 0.7 46
2019-06-10 22:00:00 22.9 8 Noroeste 21 Noroeste 0 1014 -0.5 49
2019-06-10 21:00:00 20.1 9 Sudoeste 30 Oeste 0 1013.8 -1.2 68
2019-06-10 20:00:00 21.6 18 Sudoeste 37 Oeste 0 1013.8 -1.9 58
2019-06-10 19:00:00 23 21 Sudoeste 38 Sudoeste 0 1014.5 -1.8 53
2019-06-10 18:00:00 23 22 Sudoeste 42 Oeste 0 1015 -1.8 55
2019-06-10 17:00:00 23.7 24 Sudoeste 41 Sudoeste 0 1015.7 -1.6 51
2019-06-10 16:00:00 23.9 20 Sudoeste 38 Sudoeste 0 1016.3 -1.7 53
2019-06-10 15:00:00 24.6 21 Sudoeste 34 Oeste 0 1016.8 -1.3 51
2019-06-10 14:00:00 23.4 18 Sudoeste 29 Sudoeste 0 1017.3 -1.2 51
2019-06-10 13:00:00 22.4 17 Sudoeste 27 Oeste 0 1018 -0.6 50
2019-06-10 12:00:00 22.4 9 Noroeste 22 Noroeste 0 1018.1 -0.5 48
2019-06-10 11:00:00 20.6 9 Norte 24 Noroeste 0 1018.5 0.1 54
2019-06-10 10:00:00 19.4 10 Norte 19 Noroeste 0 1018.6 0.9 62
2019-06-10 09:00:00 17.8 6 Noroeste 15 Noroeste 0 1018.6 1.1 72
2019-06-10 08:00:00 16.5 3 Noroeste 19 Noroeste 0 1018.4 0.6 81
2019-06-10 07:00:00 16.1 10 Noroeste 29 Noroeste 0 1017.7 -0.5 82
2019-06-10 06:00:00 16.3 14 Noroeste 30 Noroeste 0 1017.5 -1 82
2019-06-10 05:00:00 16.6 12 Noroeste 32 Noroeste 0 1017.8 -0.9 79
2019-06-10 04:00:00 16.9 14 Noroeste 34 Norte 0 1018.2 -0.6 75
2019-06-10 03:00:00 17.4 15 Noroeste 33 Noroeste 0 1018.5 -0.4 72
2019-06-10 02:00:00 18 12 Noroeste 27 Noroeste 0 1018.7 -0.1 68
2019-06-10 01:00:00 18.5 13 Noroeste 31 Noroeste 0 1018.8 0.8 65
2019-06-10 00:00:00 19.2 13 Noroeste 35 Norte 0 1018.9 1.6 59
2019-06-09 23:00:00 20.3 12 Noroeste 28 Norte 0 1018.8 2 52
2019-06-09 22:00:00 21.9 10 Noroeste 28 Noroeste 0 1018 1.6 48
2019-06-09 21:00:00 24.2 9 Noroeste 32 Noroeste 0 1017.3 0.7 43
2019-06-09 20:00:00 26 13 Noroeste 28 Noroeste 0 1016.8 -0.4 41
2019-06-09 19:00:00 24 14 Sudoeste 30 Sudoeste 0 1016.4 -1.3 51
2019-06-09 18:00:00 24.9 18 Sudoeste 32 Sudoeste 0 1016.6 -1.6 48
2019-06-09 17:00:00 25.5 19 Sudoeste 32 Sudoeste 0 1017.2 -1.5 46
2019-06-09 16:00:00 24.9 18 Sudoeste 32 Sudoeste 0 1017.7 -1.1 44
2019-06-09 15:00:00 23.8 17 Sudoeste 28 Sudoeste 0 1018.2 -0.7 44
2019-06-09 14:00:00 25.2 6 Noroeste 24 Noroeste 0 1018.7 -0.2 34
2019-06-09 13:00:00 23.7 9 Noroeste 27 Noroeste 0 1018.8 -0.1 38
2019-06-09 12:00:00 21.8 10 Noroeste 28 Noroeste 0 1018.9 0.2 43
2019-06-09 11:00:00 19.7 13 Noroeste 34 Norte 0 1018.9 0.5 48
2019-06-09 10:00:00 17.7 15 Noroeste 31 Noroeste 0 1018.9 0.9 51
2019-06-09 09:00:00 16.1 14 Noroeste 32 Norte 0 1018.7 1.1 58
2019-06-09 08:00:00 14.5 14 Noroeste 31 Norte 0 1018.4 1 62
2019-06-09 07:00:00 14.3 10 Norte 30 Noroeste 0 1018 0.4 60
2019-06-09 06:00:00 14.7 9 Norte 26 Norte 0 1017.6 -0.1 56
2019-06-09 05:00:00 15.7 13 Norte 28 Noroeste 0 1017.4 -0.1 53
2019-06-09 04:00:00 16.2 13 Noroeste 30 Norte 0 1017.6 -0.1 50
2019-06-09 03:00:00 17.4 15 Noroeste 37 Noroeste 0 1017.7 0 48
2019-06-09 02:00:00 18.7 17 Norte 33 Noroeste 0 1017.5 0.5 47
2019-06-09 01:00:00 19.9 17 Noroeste 34 Norte 0 1017.7 1.4 45
2019-06-09 00:00:00 21 13 Noroeste 35 Norte 0 1017.7 2.2 43
2019-06-08 23:00:00 22.1 9 Noroeste 21 Norte 0 1017 1.8 41
2019-06-08 22:00:00 21.5 5 Oeste 22 Oeste 0 1016.3 1.1 43
2019-06-08 21:00:00 24.1 13 Oeste 31 Sudoeste 0 1015.5 0.2 36
2019-06-08 20:00:00 26.1 16 Sudoeste 29 Oeste 0 1015.2 -0.5 35
2019-06-08 19:00:00 27.4 15 Sudoeste 31 Oeste 0 1015.2 -0.9 34
2019-06-08 18:00:00 28.1 18 Sudoeste 30 Oeste 0 1015.3 -1.2 32
2019-06-08 17:00:00 28.8 15 Sudoeste 29 Sudoeste 0 1015.7 -1.1 33
2019-06-08 16:00:00 27.2 19 Sudoeste 29 Sudoeste 0 1016.1 -1.1 36
2019-06-08 15:00:00 26.1 16 Sudoeste 27 Sudoeste 0 1016.5 -0.9 44
2019-06-08 14:00:00 28.8 5 Noroeste 14 Oeste 0 1016.8 -0.7 29
2019-06-08 13:00:00 26.7 5 Norte 16 Noroeste 0 1017.2 -0.2 34
2019-06-08 12:00:00 23.7 8 Noroeste 23 Norte 0 1017.4 0.2 41
2019-06-08 11:00:00 21.2 9 Noroeste 23 Noroeste 0 1017.5 0.2 46
2019-06-08 10:00:00 19 11 Noroeste 28 Norte 0 1017.4 0.4 52
2019-06-08 09:00:00 16.6 15 Norte 35 Noroeste 0 1017.2 0.2 57
2019-06-08 08:00:00 15.3 16 Noroeste 33 Norte 0 1017.3 0.4 60
2019-06-08 07:00:00 15.3 16 Noroeste 32 Noroeste 0 1017 -0.1 60
2019-06-08 06:00:00 15.9 17 Norte 34 Noroeste 0 1017 -0.5 57
2019-06-08 05:00:00 16.3 14 Noroeste 33 Noroeste 0 1016.9 -0.9 56
2019-06-08 04:00:00 16.8 15 Norte 35 Noroeste 0 1017.1 -0.8 54
2019-06-08 03:00:00 17.6 16 Norte 37 Norte 0 1017.5 -0.4 51
2019-06-08 02:00:00 18.3 14 Noroeste 31 Norte 0 1017.8 0.6 50
2019-06-08 01:00:00 19 12 Noroeste 29 Norte 0 1017.9 1 49
2019-06-08 00:00:00 19.9 14 Noroeste 30 Norte 0 1017.9 1.4 46
2019-06-07 23:00:00 21.6 5 Norte 18 Norte 0 1017.2 0.9 37
2019-06-07 22:00:00 22.8 8 Noroeste 18 Nordeste 0 1016.9 0.4 36
2019-06-07 21:00:00 23.2 0 Calma 18 Sudoeste 0 1016.5 0.1 39
2019-06-07 20:00:00 23.7 9 Sudoeste 24 Oeste 0 1016.3 -0.3 43
2019-06-07 19:00:00 23.7 15 Sudoeste 32 Sudoeste 0 1016.5 -0.6 42
2019-06-07 18:00:00 25.6 16 Oeste 31 Oeste 0 1016.4 -0.8 40
2019-06-07 17:00:00 26.4 12 Oeste 26 Oeste 0 1016.6 -1 38
2019-06-07 16:00:00 25.8 9 Noroeste 28 Noroeste 0 1017.1 -0.7 33
2019-06-07 15:00:00 24.8 9 Noroeste 26 Noroeste 0 1017.2 -0.4 34
2019-06-07 14:00:00 23.5 10 Norte 25 Norte 0 1017.6 0 37
2019-06-07 13:00:00 21.9 9 Norte 25 Noroeste 0 1017.8 0.3 39
2019-06-07 12:00:00 20.6 11 Noroeste 27 Norte 0 1017.6 0.5 43
2019-06-07 11:00:00 18.9 13 Norte 28 Noroeste 0 1017.6 1 51
2019-06-07 10:00:00 18.2 9 Norte 22 Noroeste 0 1017.5 1.8 59
2019-06-07 09:00:00 16.4 5 Norte 18 Norte 0 1017.1 2 73
2019-06-07 08:00:00 15.1 9 Norte 18 Norte 0 1016.6 2 83
2019-06-07 07:00:00 15.1 4 Norte 19 Norte 0 1015.7 1.4 82
2019-06-07 06:00:00 15.5 9 Norte 21 Noroeste 0 1015.1 0.9 80
2019-06-07 05:00:00 16 9 Norte 21 Norte 0 1014.6 1.1 77
2019-06-07 04:00:00 16.3 5 Norte 23 Noroeste 0 1014.3 0.9 72
2019-06-07 03:00:00 16.8 11 Norte 33 Norte 0 1014.2 0.8 78
2019-06-07 02:00:00 18.6 9 Oeste 21 Sudoeste 0 1013.5 0.5 80
2019-06-07 01:00:00 17.8 8 Sudoeste 17 Sudoeste 0 1013.4 1.3 79
2019-06-07 00:00:00 18.1 8 Sudoeste 24 Oeste 0 1013.4 1.8 75
2019-06-06 23:00:00 18.6 15 Oeste 32 Oeste 0 1013 2.1 69
2019-06-06 22:00:00 19.4 17 Oeste 40 Oeste 0 1012.1 1 62
2019-06-06 21:00:00 20.8 21 Oeste 39 Oeste 0 1011.6 0 57
2019-06-06 20:00:00 22 24 Oeste 42 Oeste 0 1010.9 -1.4 56
2019-06-06 19:00:00 22.4 26 Sudoeste 46 Sudoeste 0 1011.1 -2.1 57
2019-06-06 18:00:00 22 27 Sudoeste 47 Sudoeste 0 1011.6 -2 57
2019-06-06 17:00:00 22.5 27 Sudoeste 43 Sudoeste 0 1012.3 -1.6 55
2019-06-06 16:00:00 21.6 21 Sudoeste 36 Sudoeste 0 1013.2 -0.8 55
2019-06-06 15:00:00 21.6 21 Sudoeste 35 Sudoeste 0 1013.6 -0.4 52
2019-06-06 14:00:00 21.2 19 Sudoeste 32 Sudoeste 0 1013.9 -0.5 51
2019-06-06 13:00:00 20.6 18 Sudoeste 25 Sudoeste 0 1014 -0.5 50
2019-06-06 12:00:00 21.4 4 Oeste 18 Sudoeste 0 1014 -0.7 43
2019-06-06 11:00:00 19.6 6 Noroeste 17 Noroeste 0 1014.4 -0.5 49
2019-06-06 10:00:00 17.7 8 Norte 21 Norte 0 1014.5 -0.4 56
2019-06-06 09:00:00 15.9 4 Norte 17 Norte 0 1014.7 -0.1 64
2019-06-06 08:00:00 14.2 7 Norte 17 Norte 0 1014.9 0 67
2019-06-06 07:00:00 14.1 7 Noroeste 19 Norte 0 1014.9 0 66
2019-06-06 06:00:00 14.7 8 Norte 22 Noroeste 0 1014.8 -0.5 64
2019-06-06 05:00:00 15.2 9 Noroeste 31 Noroeste 0 1014.9 -0.7 62
2019-06-06 04:00:00 15.7 15 Noroeste 35 Norte 0 1014.9 -0.8 60
2019-06-06 03:00:00 16.3 13 Noroeste 34 Noroeste 0 1015.3 -0.4 56
2019-06-06 02:00:00 16.7 13 Noroeste 32 Noroeste 0 1015.6 0.4 52
2019-06-06 01:00:00 17.4 15 Noroeste 34 Norte 0 1015.7 1.3 50
2019-06-06 00:00:00 18.4 16 Norte 31 Norte 0 1015.7 1.7 43
2019-06-05 23:00:00 19.9 13 Noroeste 29 Noroeste 0 1015.2 1.3 40
2019-06-05 22:00:00 21.5 9 Noroeste 21 Noroeste 0 1014.4 0.3 37
2019-06-05 21:00:00 23.4 9 Noroeste 21 Noroeste 0 1014 -0.4 35
2019-06-05 20:00:00 24.3 3 Sudoeste 24 Sudoeste 0 1013.9 -1.1 42
2019-06-05 19:00:00 24 14 Sudoeste 26 Sudoeste 0 1014.1 -1.2 46
2019-06-05 18:00:00 24 16 Sudoeste 28 Sudoeste 0 1014.4 -1.4 47
2019-06-05 17:00:00 23.8 16 Sudoeste 32 Sudoeste 0 1015 -1.6 46
2019-06-05 16:00:00 23.7 13 Sudoeste 27 Oeste 0 1015.3 -1.5 44
2019-06-05 15:00:00 23.5 8 Norte 26 Norte 0 1015.8 -1.3 36
2019-06-05 14:00:00 23.8 6 Norte 27 Norte 0 1016.6 -0.5 38
2019-06-05 13:00:00 21.7 12 Noroeste 29 Noroeste 0 1016.8 -0.3 41
2019-06-05 12:00:00 21.3 9 Norte 32 Norte 0 1017.1 0.3 44
2019-06-05 11:00:00 19.7 10 Norte 29 Noroeste 0 1017.1 0.6 51
2019-06-05 10:00:00 18.1 11 Noroeste 29 Norte 0 1017.1 1.3 58
2019-06-05 09:00:00 17 7 Noroeste 16 Noroeste 0 1016.8 1.2 69
2019-06-05 08:00:00 15.1 4 Oeste 11 Noroeste 0 1016.5 1.3 76
2019-06-05 07:00:00 14.8 4 Noroeste 13 Oeste 0 1015.8 0.6 75
2019-06-05 06:00:00 15.1 5 Noroeste 23 Noroeste 0 1015.6 0.5 72
2019-06-05 05:00:00 15.9 6 Noroeste 19 Noroeste 0 1015.2 0.3 69
2019-06-05 04:00:00 16.4 8 Noroeste 21 Noroeste 0 1015.2 0.9 66
2019-06-05 03:00:00 16.9 8 Noroeste 30 Norte 0 1015.1 1.4 63
2019-06-05 02:00:00 17.6 14 Noroeste 30 Norte 0 1014.9 2.1 58
2019-06-05 01:00:00 18.4 15 Noroeste 40 Norte 0 1014.3 2.7 54
2019-06-05 00:00:00 19.1 12 Noroeste 32 Oeste 0 1013.7 2.5 52
2019-06-04 23:00:00 21.3 10 Noroeste 27 Norte 0 1012.8 2 46
2019-06-04 22:00:00 22.9 12 Noroeste 30 Noroeste 0 1011.6 1.2 45
2019-06-04 21:00:00 23.8 8 Noroeste 33 Noroeste 0 1011.2 0.5 48
2019-06-04 20:00:00 24.4 15 Noroeste 36 Norte 0 1010.8 -0.5 48
2019-06-04 19:00:00 27.1 8 Noroeste 27 Noroeste 0 1010.4 -1.6 48
2019-06-04 18:00:00 24.7 19 Sudoeste 34 Sudoeste 0 1010.7 -2.2 60
2019-06-04 17:00:00 24.8 22 Sudoeste 38 Sudoeste 0 1011.3 -2.1 57
2019-06-04 16:00:00 25.3 19 Sudoeste 31 Sudoeste 0 1012 -1.8 56
2019-06-04 15:00:00 26.1 18 Sudoeste 32 Sudoeste 0 1012.9 -0.8 55
2019-06-04 14:00:00 25.6 19 Sudoeste 32 Sudoeste 0 1013.4 -0.8 53
2019-06-04 13:00:00 24.8 15 Sudoeste 24 Sudoeste 0 1013.8 -0.5 53
2019-06-04 12:00:00 24.1 8 Noroeste 20 Norte 0 1013.7 -0.4 51
2019-06-04 11:00:00 22.6 10 Norte 21 Noroeste 0 1014.2 0.2 56
2019-06-04 10:00:00 21.1 8 Norte 22 Noroeste 0 1014.3 0.8 63
2019-06-04 09:00:00 19.9 6 Norte 21 Noroeste 0 1014.1 0.9 71
2019-06-04 08:00:00 18.4 8 Noroeste 16 Noroeste 0 1014 0.8 81
2019-06-04 07:00:00 17.9 6 Noroeste 16 Noroeste 0 1013.5 0.2 81
2019-06-04 06:00:00 18 4 Noroeste 18 Norte 0 1013.2 -0.6 80
2019-06-04 05:00:00 18.7 7 Noroeste 18 Norte 0 1013.2 -0.9 77
2019-06-04 04:00:00 19 9 Noroeste 22 Noroeste 0 1013.3 -1.3 74
2019-06-04 03:00:00 19.4 9 Noroeste 24 Norte 0 1013.8 -0.2 71
2019-06-04 02:00:00 19.9 9 Noroeste 22 Noroeste 0 1014.1 0.7 67
2019-06-04 01:00:00 21.1 8 Noroeste 26 Norte 0 1014.6 1.9 62
2019-06-04 00:00:00 23.3 8 Noroeste 22 Noroeste 0 1014 1.5 40
2019-06-03 23:00:00 25.4 12 Noroeste 33 Norte 0 1013.4 1.1 32
2019-06-03 22:00:00 28.3 12 Noroeste 27 Norte 0 1012.7 -0.2 31
2019-06-03 21:00:00 27.6 3 Noroeste 19 Sudoeste 0 1012.5 -0.8 45
2019-06-03 20:00:00 26.1 14 Sudoeste 27 Oeste 0 1012.3 -1.5 52
2019-06-03 19:00:00 26.8 16 Sudoeste 29 Sudoeste 0 1012.9 -1.7 48
2019-06-03 18:00:00 29.1 17 Sudoeste 26 Sudoeste 0 1013.3 -1.9 41
2019-06-03 17:00:00 26.4 15 Sudoeste 28 Sudoeste 0 1013.8 -1.6 45
2019-06-03 16:00:00 28.4 17 Sudoeste 28 Sudoeste 0 1014.6 -1 36
2019-06-03 15:00:00 26.2 14 Sudoeste 23 Sudoeste 0 1015.2 -0.6 41
2019-06-03 14:00:00 27.3 14 Sudoeste 22 Sudoeste 0 1015.4 -0.3 39
2019-06-03 13:00:00 27.9 11 Sudoeste 21 Sudoeste 0 1015.6 -0.1 41
2019-06-03 12:00:00 28.8 6 Sudeste 14 Norte 0 1015.8 0.2 36
2019-06-03 11:00:00 27.5 6 Noroeste 24 Norte 0 1015.7 0.1 33
2019-06-03 10:00:00 23.6 10 Norte 24 Norte 0 1015.7 0.2 39
2019-06-03 09:00:00 18.8 3 Noroeste 6 Noroeste 0 1015.6 0.1 65
2019-06-03 08:00:00 17.4 3 Noroeste 8 Noroeste 0 1015.6 0 81
2019-06-03 07:00:00 17.2 5 Noroeste 9 Noroeste 0 1015.5 -0.2 82
2019-06-03 06:00:00 17.6 3 Noroeste 8 Noroeste 0 1015.5 -0.6 89
2019-06-03 05:00:00 17.8 0 Calma 4 Noroeste 0 1015.6 -0.5 89
2019-06-03 04:00:00 18.6 0 Calma 6 Sudoeste 0 1015.7 -0.3 87
2019-06-03 03:00:00 19.7 4 Oeste 9 Norte 0 1016.1 0.1 83
2019-06-03 02:00:00 20.4 3 Oeste 12 Sudoeste 0 1016.1 0.6 77
2019-06-03 01:00:00 21 6 Sudoeste 13 Sur 0 1016 1 73
2019-06-03 00:00:00 21.8 5 Sudoeste 17 Sudoeste 0 1016 1.3 67
2019-06-02 23:00:00 22.9 9 Sudoeste 25 Sudoeste 0 1015.5 0.8 55
2019-06-02 22:00:00 23.4 13 Sudoeste 27 Oeste 0 1015 0.3 53
2019-06-02 21:00:00 24.2 15 Sudoeste 28 Sudoeste 0 1014.7 -0.1 51
2019-06-02 20:00:00 26.2 16 Sudoeste 28 Sudoeste 0 1014.7 0.1 42
2019-06-02 19:00:00 28.1 14 Sudoeste 24 Oeste 0 1014.7 -0.3 39
2019-06-02 18:00:00 27.9 12 Sudoeste 25 Sur 0 1014.8 -0.8 40
2019-06-02 17:00:00 27.8 13 Sur 28 Sur 0 1014.6 -1.7 36
2019-06-02 16:00:00 27.9 13 Sur 22 Sudoeste 0 1015 -1.7 36
2019-06-02 15:00:00 28.1 10 Sudoeste 18 Sudoeste 0 1015.6 -1.1 33
2019-06-02 14:00:00 27.9 11 Sudoeste 18 Sur 0 1016.3 -0.6 33
2019-06-02 13:00:00 28.6 9 Sur 17 Sur 0 1016.7 0.1 33
2019-06-02 12:00:00 27.4 6 Sudeste 16 Sudeste 0 1016.7 0.3 34
2019-06-02 11:00:00 26.4 6 Este 13 Sudeste 0 1016.9 0.8 36
2019-06-02 10:00:00 24.6 3 Sudeste 11 Noroeste 0 1016.6 0.7 41
2019-06-02 09:00:00 21.2 0 Calma 6 Nordeste 0 1016.4 0.6 54
2019-06-02 08:00:00 17.1 2 Nordeste 6 Noroeste 0 1016.1 0.3 69
2019-06-02 07:00:00 15.9 0 Calma 6 Norte 0 1015.9 -0.1 77
2019-06-02 06:00:00 16.8 2 Norte 6 Noroeste 0 1015.8 -0.9 70
2019-06-02 05:00:00 17.4 4 Noroeste 6 Noroeste 0 1015.8 -1.1 70
2019-06-02 04:00:00 18.2 4 Noroeste 6 Noroeste 0 1016 -1.1 68
2019-06-02 03:00:00 18.8 5 Oeste 8 Sudoeste 0 1016.7 -0.1 67
2019-06-02 02:00:00 19.1 3 Oeste 11 Sur 0 1016.9 0.5 62
2019-06-02 01:00:00 20.2 7 Sur 13 Sur 0 1017.1 1.5 55
2019-06-02 00:00:00 20.6 3 Sudoeste 9 Sur 0 1016.8 1.8 57
2019-06-01 23:00:00 21.8 4 Oeste 14 Oeste 0 1016.4 1.5 49
2019-06-01 22:00:00 22.6 8 Oeste 15 Oeste 0 1015.6 0.4 48
2019-06-01 21:00:00 24.6 8 Sudoeste 17 Sudoeste 0 1015 -0.4 45
2019-06-01 20:00:00 25.5 9 Sudoeste 16 Sudoeste 0 1014.9 -0.8 43
2019-06-01 19:00:00 25.8 9 Sudoeste 19 Sur 0 1015.2 -0.8 41
2019-06-01 18:00:00 27.3 10 Sudoeste 20 Sudoeste 0 1015.4 -0.9 40
2019-06-01 17:00:00 27.1 12 Sur 22 Sur 0 1015.7 -1.1 40
2019-06-01 16:00:00 27 11 Sudoeste 21 Sudoeste 0 1016 -1 41
2019-06-01 15:00:00 27.6 10 Sudoeste 18 Sur 0 1016.3 -0.8 38
2019-06-01 14:00:00 27.7 10 Sur 21 Sur 0 1016.8 -0.5 35
2019-06-01 13:00:00 27.4 9 Sudeste 21 Sudeste 0 1017 -0.1 34
2019-06-01 12:00:00 26.5 10 Sudeste 20 Sudeste 0 1017.1 0.1 37
2019-06-01 11:00:00 25.4 9 Este 19 Este 0 1017.3 0.5 40
2019-06-01 10:00:00 24.5 8 Este 15 Este 0 1017.1 0.5 46
2019-06-01 09:00:00 20.7 3 Norte 8 Norte 0 1017 0.6 57
2019-06-01 08:00:00 16.4 3 Noroeste 5 Norte 0 1016.8 0.3 72
2019-06-01 07:00:00 15.7 2 Norte 8 Noroeste 0 1016.6 -0.1 72
2019-06-01 06:00:00 16.1 0 Calma 7 Nordeste 0 1016.4 -0.4 72
2019-06-01 05:00:00 17.4 3 Norte 9 Norte 0 1016.5 -0.9 70
2019-06-01 04:00:00 17.8 5 Noroeste 8 Noroeste 0 1016.7 -0.9 71
2019-06-01 03:00:00 18.4 3 Oeste 6 Sudeste 0 1016.8 -0.8 67
2019-06-01 02:00:00 20.6 3 Sudeste 10 Sudeste 0 1017.4 0.5 57
2019-06-01 01:00:00 18.8 0 Calma 7 Sudeste 0 1017.6 1.5 63
2019-06-01 00:00:00 20.3 3 Sudeste 9 Sudeste 0 1017.6 1.9 57
2019-05-31 23:00:00 20.6 2 Sudoeste 8 Sudoeste 0 1016.9 1.3 56
2019-05-31 22:00:00 22.2 5 Sudoeste 10 Sudoeste 0 1016.1 0.2 49
2019-05-31 21:00:00 24.3 6 Sudoeste 13 Sudoeste 0 1015.7 -0.7 44
2019-05-31 20:00:00 25.3 8 Sudoeste 17 Sudoeste 0 1015.6 -0.9 41
2019-05-31 19:00:00 25.6 9 Sudoeste 17 Sur 0 1015.9 -0.7 38
2019-05-31 18:00:00 26.6 11 Sudoeste 20 Sudoeste 0 1016.4 -0.7 36
2019-05-31 17:00:00 26.2 14 Sudoeste 21 Sur 0 1016.5 -1.2 38
2019-05-31 16:00:00 28.1 12 Sudoeste 17 Sur 0 1016.6 -1.3 34
2019-05-31 15:00:00 28.3 8 Sur 19 Oeste 0 1017.1 -0.8 32
2019-05-31 14:00:00 27.3 8 Sur 19 Sur 0 1017.7 -0.5 34
2019-05-31 13:00:00 25.8 9 Sudeste 19 Este 0 1017.9 -0.3 34
2019-05-31 12:00:00 25.9 8 Sudeste 18 Sudeste 0 1017.9 -0.4 37
2019-05-31 11:00:00 25.3 7 Este 17 Este 0 1018.2 0.2 38
2019-05-31 10:00:00 23.1 8 Este 15 Este 0 1018.2 0.6 43
2019-05-31 09:00:00 20.5 4 Este 9 Nordeste 0 1018.3 0.8 56
2019-05-31 08:00:00 15.9 2 Norte 6 Norte 0 1018 0.2 75
2019-05-31 07:00:00 15.6 0 Calma 9 Norte 0 1017.6 -0.4 72
2019-05-31 06:00:00 15.2 0 Calma 6 Noroeste 0 1017.5 -1.1 77
2019-05-31 05:00:00 16 2 Norte 6 Norte 0 1017.8 -1.2 74
2019-05-31 04:00:00 16.8 0 Calma 5 Norte 0 1018 -1.3 78
2019-05-31 03:00:00 17.1 0 Calma 4 Norte 0 1018.6 -0.9 75
2019-05-31 02:00:00 18 2 Norte 7 Nordeste 0 1019 0.4 68
2019-05-31 01:00:00 18.5 0 Calma 11 Sudeste 0 1019.3 1.3 65
2019-05-31 00:00:00 20.5 3 Sudeste 19 Sudeste 0 1019.5 2 57
2019-05-30 23:00:00 21.4 6 Sudeste 17 Este 0 1018.6 1.5 55
2019-05-30 22:00:00 21.6 3 Este 13 Sur 0 1018 0.4 55
2019-05-30 21:00:00 23 6 Sudoeste 18 Sur 0 1017.5 -0.4 51
2019-05-30 20:00:00 23.9 10 Sur 24 Sur 0 1017.1 -0.9 45
2019-05-30 19:00:00 25 12 Sur 23 Sur 0 1017.6 -0.4 42
2019-05-30 18:00:00 25.5 11 Sur 23 Sur 0 1017.9 -0.3 41
2019-05-30 17:00:00 25.9 12 Sur 25 Sur 0 1018 -0.5 42
2019-05-30 16:00:00 26.6 14 Sur 23 Sur 0 1018 -0.8 38
2019-05-30 15:00:00 28.2 11 Sudeste 20 Sudeste 0 1018.2 -0.8 36
2019-05-30 14:00:00 27.8 10 Sudeste 20 Sur 0 1018.5 -0.5 37
2019-05-30 13:00:00 26.8 11 Sudeste 24 Sudeste 0 1018.8 -0.4 38
2019-05-30 12:00:00 26.8 8 Este 20 Este 0 1019 0.2 39
2019-05-30 11:00:00 24.7 9 Este 19 Este 0 1019 0.6 43
2019-05-30 10:00:00 22.7 8 Este 23 Este 0 1019.2 1.2 50
2019-05-30 09:00:00 20.7 6 Este 17 Este 0 1018.8 1.1 61
2019-05-30 08:00:00 16.2 0 Calma 5 Nordeste 0 1018.4 0.7 88
2019-05-30 07:00:00 15.7 2 Nordeste 4 Nordeste 0 1018 0.2 88
2019-05-30 06:00:00 16.1 2 Noroeste 4 Noroeste 0 1017.7 -0.1 86
2019-05-30 05:00:00 16.9 0 Calma 4 Noroeste 0 1017.7 -0.2 85
2019-05-30 04:00:00 17.6 2 Oeste 5 Oeste 0 1017.8 -0.1 80
2019-05-30 03:00:00 18 0 Calma 7 Sudoeste 0 1017.8 0.3 76
2019-05-30 02:00:00 18.7 5 Sudoeste 11 Sudoeste 0 1017.9 1.1 72
2019-05-30 01:00:00 19.5 3 Sudoeste 9 Sudoeste 0 1017.9 1.9 71
2019-05-30 00:00:00 20 3 Sudoeste 7 Sudoeste 0 1017.5 2.3 68
2019-05-29 23:00:00 20.8 4 Sudoeste 9 Sudoeste 0 1016.8 2.1 64
2019-05-29 22:00:00 22.5 6 Sudoeste 15 Sudoeste 0 1016 1.3 55
2019-05-29 21:00:00 24.4 10 Oeste 18 Sudoeste 0 1015.2 0.5 50
2019-05-29 20:00:00 25.8 11 Sudoeste 20 Sudoeste 0 1014.7 -0.5 44
2019-05-29 19:00:00 26.9 13 Sudoeste 23 Sudoeste 0 1014.7 -0.8 43
2019-05-29 18:00:00 27.1 11 Sudoeste 22 Sudoeste 0 1014.7 -1.2 41
2019-05-29 17:00:00 27.4 13 Sudoeste 21 Sudoeste 0 1015.2 -1.1 40
2019-05-29 16:00:00 28.2 12 Sudoeste 20 Sudoeste 0 1015.5 -0.8 38
2019-05-29 15:00:00 27 10 Sudoeste 18 Sur 0 1015.9 -0.1 38
2019-05-29 14:00:00 26.8 10 Sur 19 Sudoeste 0 1016.3 0.2 40
2019-05-29 13:00:00 26.5 12 Sur 19 Este 0 1016.3 0.5 38
2019-05-29 12:00:00 27.1 8 Sudeste 24 Sudeste 0 1016 0.5 37
2019-05-29 11:00:00 26.2 9 Este 19 Este 0 1016.1 1.5 42
2019-05-29 10:00:00 24.4 5 Este 14 Sudeste 0 1015.8 2.6 56
2019-05-29 09:00:00 22.1 5 Sudeste 14 Sudeste 0 1015.5 2.9 68
2019-05-29 08:00:00 19.6 6 Este 13 Este 0 1014.6 2.1 61
2019-05-29 07:00:00 21 3 Nordeste 14 Noroeste 0 1013.2 0.9 40
2019-05-29 06:00:00 21.7 3 Norte 11 Noroeste 0 1012.6 0.4 40
2019-05-29 05:00:00 21.6 3 Norte 11 Noroeste 0 1012.5 0.2 41
2019-05-29 04:00:00 21 4 Norte 13 Norte 0 1012.3 0.4 46
2019-05-29 03:00:00 21.4 2 Este 10 Nordeste 0 1012.2 0.7 56
2019-05-29 02:00:00 20.8 3 Nordeste 8 Este 0 1012.3 1.6 64
2019-05-29 01:00:00 22.3 3 Nordeste 9 Este 0 1011.9 1.7 58
2019-05-29 00:00:00 22.9 4 Este 11 Este 0 1011.5 1.4 55
2019-05-28 23:00:00 25 0 Calma 12 Sudoeste 0 1010.7 0.9 45
2019-05-28 22:00:00 26 7 Oeste 23 Sudoeste 0 1010.2 0.1 44
2019-05-28 21:00:00 27.1 14 Oeste 26 Oeste 0 1010.1 -0.3 42
2019-05-28 20:00:00 29 14 Sudoeste 29 Sudoeste 0 1009.8 -0.8 41
2019-05-28 19:00:00 28.4 15 Sudoeste 30 Sudoeste 0 1010.1 -0.8 41
2019-05-28 18:00:00 27.9 17 Sudoeste 33 Sudoeste 0 1010.4 -0.8 42
2019-05-28 17:00:00 28.8 17 Sudoeste 30 Sudoeste 0 1010.6 -0.8 42
2019-05-28 16:00:00 28.1 17 Sudoeste 26 Sudoeste 0 1010.9 -0.9 41
2019-05-28 15:00:00 27.4 14 Sudoeste 24 Sudoeste 0 1011.2 -0.4 42
2019-05-28 14:00:00 27.8 12 Sudoeste 19 Sudoeste 0 1011.4 0 42
2019-05-28 13:00:00 26.5 9 Sudoeste 19 Norte 0 1011.8 0.5 44
2019-05-28 12:00:00 26.6 9 Norte 25 Norte 0 1011.6 0.4 43
2019-05-28 11:00:00 23.9 10 Norte 26 Noroeste 0 1011.4 0.8 51
2019-05-28 10:00:00 20.5 15 Norte 31 Norte 0 1011.3 1.1 61
2019-05-28 09:00:00 18.1 14 Norte 30 Noroeste 0 1011.2 1 68
2019-05-28 08:00:00 17 13 Norte 36 Norte 0 1010.6 0.3 71
2019-05-28 07:00:00 16.8 13 Norte 35 Norte 0 1010.2 -0.2 72
2019-05-28 06:00:00 17 13 Norte 30 Norte 0 1010.2 -0.5 70
2019-05-28 05:00:00 17.4 10 Norte 35 Noroeste 0 1010.3 -0.7 66
2019-05-28 04:00:00 18.3 16 Norte 34 Noroeste 0 1010.4 -0.7 62
2019-05-28 03:00:00 19.5 19 Norte 42 Noroeste 0 1010.7 -0.4 58
2019-05-28 02:00:00 21.1 17 Noroeste 37 Norte 0 1011 0.6 54
2019-05-28 01:00:00 22.8 15 Norte 38 Norte 0 1011.1 1.3 49
2019-05-28 00:00:00 24.9 15 Noroeste 31 Norte 0 1011.1 1.5 42
2019-05-27 23:00:00 27.1 15 Noroeste 30 Norte 0 1010.4 1.2 40
2019-05-27 22:00:00 28 12 Noroeste 27 Norte 0 1009.8 0.4 42
2019-05-27 21:00:00 23 7 Sudoeste 19 Sudoeste 0 1009.6 -0.3 57
2019-05-27 20:00:00 25.4 11 Sudoeste 30 Oeste 0 1009.2 -1.2 49
2019-05-27 19:00:00 27.7 17 Sudoeste 32 Sudoeste 0 1009.4 -1.6 42
2019-05-27 18:00:00 28.3 19 Sudoeste 33 Oeste 0 1009.9 -1.9 41
2019-05-27 17:00:00 26.3 19 Sudoeste 32 Sudoeste 0 1010.4 -1.9 47
2019-05-27 16:00:00 25.8 14 Sudoeste 28 Sudoeste 0 1011 -1.4 48
2019-05-27 15:00:00 25.3 15 Sudoeste 27 Sudoeste 0 1011.8 -0.8 50
2019-05-27 14:00:00 24.1 17 Sudoeste 25 Oeste 0 1012.3 -0.5 50
2019-05-27 13:00:00 28 12 Sudoeste 18 Sudoeste 0 1012.4 -0.3 42
2019-05-27 12:00:00 28.7 7 Noroeste 18 Noroeste 0 1012.6 0.2 36
2019-05-27 11:00:00 26.1 6 Norte 25 Norte 0 1012.8 0.7 41
2019-05-27 10:00:00 23.4 11 Norte 28 Norte 0 1012.7 1 47
2019-05-27 09:00:00 21.4 10 Norte 23 Noroeste 0 1012.4 0.6 52
2019-05-27 08:00:00 19.8 5 Norte 18 Norte 0 1012.1 0.1 56
2019-05-27 07:00:00 18.8 6 Norte 14 Norte 0 1011.7 -0.7 62
2019-05-27 06:00:00 16 2 Norte 8 Este 0 1011.8 -0.9 90
2019-05-27 05:00:00 16.4 2 Nordeste 8 Este 0 1012 -1.1 90
2019-05-27 04:00:00 16.9 4 Este 8 Nordeste 0 1012.4 -1 89
2019-05-27 03:00:00 16.9 3 Nordeste 8 Este 0 1012.7 -0.9 88
2019-05-27 02:00:00 17.3 3 Este 10 Este 0 1013.1 0.1 86
2019-05-27 01:00:00 17.7 0 Calma 6 Noroeste 0 1013.4 1 84
2019-05-27 00:00:00 17.7 0 Calma 6 Noroeste 0 1013.6 1.5 84
2019-05-26 23:00:00 18.9 0 Calma 13 Sur 0 1013 1 79
2019-05-26 22:00:00 19.8 8 Sudoeste 23 Sudoeste 0 1012.4 -0.5 66
2019-05-26 21:00:00 22.8 14 Sudoeste 34 Oeste 0 1012.1 -1.4 47
2019-05-26 20:00:00 24.6 19 Sudoeste 33 Oeste 0 1012 -1.9 42
2019-05-26 19:00:00 24.9 20 Sudoeste 32 Sudoeste 0 1012.9 -1.6 42
2019-05-26 18:00:00 25 17 Sudoeste 28 Sudoeste 0 1013.5 -1.6 39
2019-05-26 17:00:00 26.4 15 Sudoeste 27 Sudoeste 0 1013.9 -1.9 36
2019-05-26 16:00:00 25.8 15 Sudoeste 26 Oeste 0 1014.5 -1.7 39
2019-05-26 15:00:00 24.5 13 Sudoeste 22 Sur 0 1015.1 -1.4 41
2019-05-26 14:00:00 24.1 12 Sudoeste 19 Sur 0 1015.8 -0.6 42
2019-05-26 13:00:00 24.3 13 Sur 18 Sur 0 1016.2 -0.2 40
2019-05-26 12:00:00 23 9 Sur 17 Sur 0 1016.5 0.2 44
2019-05-26 11:00:00 22.7 8 Sur 14 Sur 0 1016.4 0.6 47
2019-05-26 10:00:00 22.2 0 Calma 7 Nordeste 0 1016.4 1 43
2019-05-26 09:00:00 19.2 0 Calma 5 Norte 0 1016.3 1.1 80
2019-05-26 08:00:00 15.4 0 Calma 2 Noroeste 0 1015.8 0.6 91
2019-05-26 07:00:00 15 0 Calma 3 Noroeste 0 1015.4 0.1 91
2019-05-26 06:00:00 15.5 2 Nordeste 5 Nordeste 0 1015.2 -0.1 90
2019-05-26 05:00:00 15.9 0 Calma 5 Este 0 1015.2 0.1 89
2019-05-26 04:00:00 16.6 3 Nordeste 15 Este 0 1015.3 0.2 87
2019-05-26 03:00:00 17.4 6 Este 13 Este 0 1015.3 0.4 81
2019-05-26 02:00:00 17.5 7 Este 11 Este 0 1015.1 0.8 81
2019-05-26 01:00:00 17.9 0 Calma 5 Norte 0 1015.1 1.2 77
2019-05-26 00:00:00 18.3 0 Calma 10 Oeste 0 1014.9 1.4 68
2019-05-25 23:00:00 20.1 6 Oeste 18 Oeste 0 1014.3 0.8 62
2019-05-25 22:00:00 20 6 Sur 18 Sudoeste 0 1013.9 0.3 66
2019-05-25 21:00:00 22.7 12 Sudoeste 26 Sudoeste 0 1013.5 -0.1 55
2019-05-25 20:00:00 23.2 13 Sudoeste 26 Sudoeste 0 1013.5 -0.4 56
2019-05-25 19:00:00 26.5 12 Sudoeste 28 Sudoeste 0 1013.6 -0.8 48
2019-05-25 18:00:00 25.9 14 Sudoeste 30 Sudoeste 0 1013.6 -1.5 51
2019-05-25 17:00:00 24.4 17 Sudoeste 27 Sudoeste 0 1013.9 -2 57
2019-05-25 16:00:00 24.9 15 Sudoeste 23 Sudoeste 0 1014.4 -1.7 55
2019-05-25 15:00:00 24.9 13 Sudoeste 21 Sur 0 1015.1 -0.8 55
2019-05-25 14:00:00 23.5 9 Sudoeste 18 Sudoeste 0 1015.9 0.2 59
2019-05-25 13:00:00 23 9 Sur 18 Sur 0 1016.1 0.7 59
2019-05-25 12:00:00 22.7 6 Sur 13 Sur 0 1015.9 0.9 61
2019-05-25 11:00:00 21.8 5 Sudeste 17 Este 0 1015.7 1.3 65
2019-05-25 10:00:00 20.9 5 Sudeste 15 Este 0 1015.4 2.1 72
2019-05-25 09:00:00 19.7 7 Este 18 Sudeste 0 1015 3.2 81
2019-05-25 08:00:00 18.7 4 Este 13 Este 0 1014.4 3.1 75
2019-05-25 07:00:00 17.5 5 Nordeste 16 Norte 0 1013.3 2.1 61
2019-05-25 06:00:00 18.7 7 Norte 31 Noroeste 0 1011.8 0.4 55
2019-05-25 05:00:00 19.4 13 Norte 34 Noroeste 0 1011.3 -0.5 55
2019-05-25 04:00:00 19.9 17 Noroeste 37 Noroeste 0 1011.2 -0.7 55
2019-05-25 03:00:00 20.2 17 Noroeste 39 Norte 0 1011.4 -0.3 53
2019-05-25 02:00:00 21.1 16 Noroeste 36 Norte 0 1011.8 0.7 50
2019-05-25 01:00:00 22.4 17 Noroeste 33 Norte 0 1011.9 1.6 47
2019-05-25 00:00:00 23.7 17 Noroeste 33 Norte 0 1011.7 2 42
2019-05-24 23:00:00 26 13 Noroeste 28 Norte 0 1011.1 1.6 35
2019-05-24 22:00:00 26.7 9 Noroeste 25 Norte 0 1010.3 0.4 34
2019-05-24 21:00:00 28 10 Noroeste 27 Norte 0 1009.7 -0.6 32
2019-05-24 20:00:00 29.6 10 Noroeste 26 Norte 0 1009.5 -1.1 31
2019-05-24 19:00:00 30 12 Noroeste 26 Noroeste 0 1009.9 -1.3 30
2019-05-24 18:00:00 30.1 12 Noroeste 30 Norte 0 1010.3 -1.8 29
2019-05-24 17:00:00 30.1 6 Norte 26 Norte 0 1010.6 -2.3 29
2019-05-24 16:00:00 29 9 Norte 26 Norte 0 1011.2 -2.3 31
2019-05-24 15:00:00 28.1 9 Norte 23 Norte 0 1012.1 -1.7 32
2019-05-24 14:00:00 26.4 11 Noroeste 31 Noroeste 0 1012.9 -1 37
2019-05-24 13:00:00 24.5 12 Norte 31 Norte 0 1013.5 -1 43
2019-05-24 12:00:00 22.3 12 Norte 35 Noroeste 0 1013.8 -1 50
2019-05-24 11:00:00 20.4 14 Norte 34 Norte 0 1013.9 -0.7 56
2019-05-24 10:00:00 17.5 14 Norte 30 Oeste 0 1014.5 0.6 66
2019-05-24 09:00:00 15.7 10 Norte 29 Norte 0 1014.8 1.1 73
2019-05-24 08:00:00 14.9 11 Noroeste 37 Norte 0 1014.6 -0.1 75
2019-05-24 07:00:00 15 16 Noroeste 42 Norte 0 1013.9 -1 74
2019-05-24 06:00:00 15.3 10 Norte 33 Norte 0 1013.7 -1.4 70
2019-05-24 05:00:00 15.7 9 Norte 35 Noroeste 0 1014.7 -0.7 66
2019-05-24 04:00:00 16.8 14 Norte 33 Norte 0 1014.9 -0.8 62
2019-05-24 03:00:00 18.1 16 Norte 36 Norte 0 1015.1 -0.5 62
2019-05-24 02:00:00 19.4 20 Norte 43 Norte 0 1015.4 0.3 63
2019-05-24 01:00:00 20.8 15 Noroeste 37 Noroeste 0 1015.7 1.3 60
2019-05-24 00:00:00 22.3 15 Noroeste 36 Noroeste 0 1015.6 1.5 54
2019-05-23 23:00:00 23.8 17 Noroeste 35 Noroeste 0 1015.1 1.3 51
2019-05-23 22:00:00 25.8 10 Noroeste 25 Norte 0 1014.4 0.4 43
2019-05-23 21:00:00 22.9 3 Sur 16 Oeste 0 1014.1 -0.5 55
2019-05-23 20:00:00 25.9 10 Sudoeste 28 Oeste 0 1013.8 -1.1 44
2019-05-23 19:00:00 26.8 17 Sudoeste 31 Sudoeste 0 1014 -1.3 41
2019-05-23 18:00:00 27.9 18 Sudoeste 32 Oeste 0 1014.6 -1.1 39
2019-05-23 17:00:00 28 18 Sudoeste 30 Sudoeste 0 1014.9 -1.3 38
2019-05-23 16:00:00 28 17 Sudoeste 30 Sudoeste 0 1015.3 -1.3 40
2019-05-23 15:00:00 26.9 13 Sudoeste -- -- 0 1015.7 -1.3 43
2019-05-23 14:00:00 29.5 4 Norte 14 Noroeste 0 1016.2 -0.7 35
2019-05-23 13:00:00 28 7 Noroeste 25 Norte 0 1016.6 -0.1 39
2019-05-23 12:00:00 25.2 7 Norte 20 Norte 0 1017 0.5 43
2019-05-23 11:00:00 24 4 Norte 20 Norte 0 1016.9 0.8 50
2019-05-23 10:00:00 20.8 6 Norte 21 Norte 0 1016.7 0.8 57
2019-05-23 09:00:00 19 5 Norte 19 Norte 0 1016.5 0.6 63
2019-05-23 08:00:00 17.4 9 Noroeste 20 Norte 0 1016.1 0.4 67
2019-05-23 07:00:00 17.5 8 Norte 23 Noroeste 0 1015.9 0.1 66
2019-05-23 06:00:00 18.1 8 Noroeste 23 Noroeste 0 1015.9 -0.2 65
2019-05-23 05:00:00 18.9 8 Norte 22 Noroeste 0 1015.7 -0.4 62
2019-05-23 04:00:00 19.6 10 Noroeste 24 Norte 0 1015.8 -0.6 61
2019-05-23 03:00:00 20.4 10 Noroeste 22 Norte 0 1016.1 -0.1 58
2019-05-23 02:00:00 20.8 10 Noroeste 25 Noroeste 0 1016.1 0.6 57
2019-05-23 01:00:00 21.7 10 Noroeste 26 Norte 0 1016.4 1.2 52
2019-05-23 00:00:00 22.6 11 Noroeste 23 Noroeste 0 1016.2 1.2 53
2019-05-22 23:00:00 19.5 3 Noroeste 7 Oeste 0 1015.5 0.5 63
2019-05-22 22:00:00 20.5 3 Oeste 11 Sudoeste 0 1015.2 0 61
2019-05-22 21:00:00 21.8 6 Sudoeste 14 Oeste 0 1015 -0.4 60
2019-05-22 20:00:00 22.5 9 Sudoeste 17 Sudoeste 0 1015 -0.7 60
2019-05-22 19:00:00 23.6 10 Sudoeste 21 Sudoeste 0 1015.2 -0.8 56
2019-05-22 18:00:00 22.5 12 Sudoeste 20 Sudoeste 0 1015.4 -0.9 59
2019-05-22 17:00:00 23.5 10 Sudoeste 22 Sudoeste 0 1015.7 -0.6 58
2019-05-22 16:00:00 22.3 14 Sudoeste 22 Sudoeste 0 1016 -0.3 59
2019-05-22 15:00:00 22.9 13 Sur 21 Sur 0 1016.3 0.2 57
2019-05-22 14:00:00 22.8 10 Sudeste 22 Sur 0 1016.3 0.4 54
2019-05-22 13:00:00 23.4 11 Sudeste 19 Sudeste 0 1016.3 0.3 51
2019-05-22 12:00:00 24.1 8 Sudeste 15 Sudeste 0 1016.1 0.5 52
2019-05-22 11:00:00 22.9 4 Este 12 Noroeste 0 1015.9 0.9 56
2019-05-22 10:00:00 19.6 6 Norte 15 Norte 0 1016 1.6 66
2019-05-22 09:00:00 17.6 7 Norte 19 Noroeste 0 1015.6 1.5 75
2019-05-22 08:00:00 16.1 4 Norte 15 Norte 0 1015 0.8 79
2019-05-22 07:00:00 16 5 Noroeste 22 Noroeste 0 1014.4 -0.1 78
2019-05-22 06:00:00 16.4 9 Noroeste 24 Norte 0 1014.1 -0.8 77
2019-05-22 05:00:00 16.6 11 Noroeste 27 Noroeste 0 1014.2 -1 75
2019-05-22 04:00:00 16.8 13 Noroeste 26 Norte 0 1014.5 -0.8 73
2019-05-22 03:00:00 16.9 11 Noroeste 30 Norte 0 1014.9 -0.2 70
2019-05-22 02:00:00 17.3 12 Norte 29 Noroeste 0 1015.2 0.7 68
2019-05-22 01:00:00 17.9 12 Noroeste 31 Noroeste 0 1015.3 1.4 67
2019-05-22 00:00:00 19.5 14 Norte 34 Norte 0 1015.1 1.8 61
2019-05-21 23:00:00 20.9 16 Norte 30 Norte 0 1014.5 1.6 53
2019-05-21 22:00:00 21.3 8 Norte 18 Noroeste 0 1013.9 0.8 58
2019-05-21 21:00:00 20.1 9 Sudoeste 23 Sudoeste 0 1013.3 -0.2 66
2019-05-21 20:00:00 21 12 Sudoeste 26 Sudoeste 0 1012.9 -0.9 63
2019-05-21 19:00:00 23.2 16 Sudoeste 31 Sudoeste 0 1013.1 -1.2 57
2019-05-21 18:00:00 23.4 18 Sudoeste 31 Sudoeste 0 1013.5 -1.2 57
2019-05-21 17:00:00 22.9 20 Sudoeste 33 Sudoeste 0 1013.8 -1.2 57
2019-05-21 16:00:00 24.7 18 Sudoeste 31 Oeste 0 1014.3 -0.9 51
2019-05-21 15:00:00 23.6 15 Sudoeste 26 Sudoeste 0 1014.7 -0.8 53
2019-05-21 14:00:00 24.7 7 Noroeste 20 Noroeste 0 1015 -0.8 47
2019-05-21 13:00:00 23.1 8 Noroeste 24 Noroeste 0 1015.2 -0.3 55
2019-05-21 12:00:00 21.1 12 Noroeste 26 Noroeste 0 1015.5 0.5 61
2019-05-21 11:00:00 19.7 9 Norte 22 Noroeste 0 1015.8 1.2 64
2019-05-21 10:00:00 17.9 16 Norte 30 Norte 0 1015.5 1.5 70
2019-05-21 09:00:00 17 10 Norte 25 Noroeste 0 1015 0.9 77
2019-05-21 08:00:00 15.7 6 Noroeste 18 Norte 0 1014.6 0.6 81
2019-05-21 07:00:00 15.2 5 Norte 18 Noroeste 0 1014 0.2 81
2019-05-21 06:00:00 15.4 9 Noroeste 29 Noroeste 0 1014.1 0.1 78
2019-05-21 05:00:00 15.7 14 Norte 32 Norte 0 1014 0 75
2019-05-21 04:00:00 16.3 14 Noroeste 31 Noroeste 0 1013.8 -0.3 72
2019-05-21 03:00:00 17 13 Noroeste 30 Noroeste 0 1014 0 68
2019-05-21 02:00:00 17.6 14 Noroeste 29 Noroeste 0 1014 0.6 65
2019-05-21 01:00:00 18.1 13 Noroeste 33 Norte 0 1014.1 1.6 64
2019-05-21 00:00:00 18.7 15 Noroeste 35 Norte 0 1014 2.5 62
2019-05-20 23:00:00 19.8 10 Noroeste 27 Norte 0 1013.4 2 58
2019-05-20 22:00:00 21.3 9 Noroeste 25 Noroeste 0 1012.5 0.6 55
2019-05-20 21:00:00 20.5 2 Sudoeste 17 Sudoeste 0 1011.5 -0.7 69
2019-05-20 20:00:00 20.5 11 Sudoeste 25 Sudoeste 0 1011.4 -1 66
2019-05-20 19:00:00 21.7 13 Sudoeste 26 Sudoeste 0 1011.9 -1.2 63
2019-05-20 18:00:00 21.6 17 Sudoeste 35 Sudoeste 0 1012.2 -1.3 57
2019-05-20 17:00:00 23.1 19 Sudoeste 33 Sudoeste 0 1012.4 -1.4 47
2019-05-20 16:00:00 22.9 20 Sudoeste 32 Sudoeste 0 1013.1 -0.6 48
2019-05-20 15:00:00 23.1 16 Sudoeste 29 Sudoeste 0 1013.5 -0.3 48
2019-05-20 14:00:00 23.2 16 Sudoeste 29 Sudoeste 0 1013.8 -0.2 38
2019-05-20 13:00:00 23.6 13 Sudoeste 22 Sudoeste 0 1013.7 -0.3 37
2019-05-20 12:00:00 22.1 3 Noroeste 16 Noroeste 0 1013.8 0.5 37
2019-05-20 11:00:00 20.2 5 Norte 20 Noroeste 0 1014 1.1 42
2019-05-20 10:00:00 17.3 10 Noroeste 22 Noroeste 0 1014 1.7 52
2019-05-20 09:00:00 15.4 5 Norte 17 Noroeste 0 1013.3 1.2 61
2019-05-20 08:00:00 14.2 5 Norte 14 Noroeste 0 1012.9 0.8 67
2019-05-20 07:00:00 13.9 0 Calma 13 Norte 0 1012.3 0 69
2019-05-20 06:00:00 15 5 Norte 17 Noroeste 0 1012.1 -0.5 69
2019-05-20 05:00:00 15.6 6 Noroeste 19 Noroeste 0 1012.1 -0.9 69
2019-05-20 04:00:00 16.2 6 Noroeste 18 Noroeste 0 1012.3 -0.7 70
2019-05-20 03:00:00 16.9 9 Noroeste 19 Norte 0 1012.6 -0.3 70
2019-05-20 02:00:00 17.6 4 Norte 19 Noroeste 0 1013 0.4 67
2019-05-20 01:00:00 17.9 6 Noroeste 16 Noroeste 0 1013 1.3 67
2019-05-20 00:00:00 18.8 5 Noroeste 14 Noroeste 0 1012.9 1.5 63
2019-05-19 23:00:00 20.1 6 Noroeste 22 Noroeste 0 1012.6 1.6 58
2019-05-19 22:00:00 21.2 9 Noroeste 23 Noroeste 0 1011.7 0.7 55
2019-05-19 21:00:00 21.8 8 Oeste 27 Oeste 0 1011.4 0 58
2019-05-19 20:00:00 20 17 Sudoeste 36 Sudoeste 0 1011 -0.9 68
2019-05-19 19:00:00 20.2 22 Sudoeste 37 Sudoeste 0 1011 -1.8 69
2019-05-19 18:00:00 21.9 22 Sudoeste 36 Oeste 0 1011.4 -1.9 64
2019-05-19 17:00:00 22 23 Sudoeste 40 Sudoeste 0 1011.9 -1.8 63
2019-05-19 16:00:00 20.4 24 Sudoeste 37 Sudoeste 0 1012.8 -1.1 63
2019-05-19 15:00:00 20.5 21 Sudoeste 36 Sudoeste 0 1013.3 -0.7 64
2019-05-19 14:00:00 21.4 19 Sudoeste 31 Sudoeste 0 1013.7 -1 60
2019-05-19 13:00:00 20.7 18 Sudoeste 29 Sudoeste 0 1013.9 -0.7 58
2019-05-19 12:00:00 21.8 10 Oeste 21 Oeste 0 1014 -0.5 51
2019-05-19 11:00:00 18.5 8 Noroeste 21 Norte 0 1014.7 0.4 59
2019-05-19 10:00:00 17 5 Noroeste 21 Norte 0 1014.6 0.8 63
2019-05-19 09:00:00 16.3 8 Noroeste 18 Noroeste 0 1014.5 0.6 67
2019-05-19 08:00:00 15.2 5 Noroeste 17 Noroeste 0 1014.3 0.3 68
2019-05-19 07:00:00 15.2 8 Noroeste 19 Norte 0 1013.8 -0.1 66
2019-05-19 06:00:00 15.2 10 Noroeste 21 Norte 0 1013.9 -0.4 66
2019-05-19 05:00:00 15.3 12 Noroeste 24 Noroeste 0 1014 -0.5 65
2019-05-19 04:00:00 15.5 9 Noroeste 25 Norte 0 1013.9 -1.2 64
2019-05-19 03:00:00 15.9 12 Noroeste 24 Norte 0 1014.3 -1 63
2019-05-19 02:00:00 16.1 11 Noroeste 23 Noroeste 0 1014.5 -0.4 62
2019-05-19 01:00:00 16.2 7 Noroeste 20 Noroeste 0 1015.1 0.6 60
2019-05-19 00:00:00 16.8 8 Noroeste 23 Noroeste 0 1015.3 1.5 57
2019-05-18 23:00:00 17.6 9 Noroeste 26 Noroeste 0 1014.9 1.7 54
2019-05-18 22:00:00 18.7 10 Noroeste 28 Norte 0 1014.5 1.3 50
2019-05-18 21:00:00 20.2 12 Noroeste 32 Noroeste 0 1013.8 0.9 45
2019-05-18 20:00:00 21.5 13 Noroeste 30 Norte 0 1013.2 0.3 42
2019-05-18 19:00:00 22.7 13 Noroeste 31 Noroeste 0 1013.2 -0.2 40
2019-05-18 18:00:00 23.3 13 Norte 31 Noroeste 0 1012.9 -1.2 38
2019-05-18 17:00:00 24 12 Noroeste 30 Noroeste 0 1012.9 -1.5 38
2019-05-18 16:00:00 23.6 9 Noroeste 31 Norte 0 1013.4 -1.1 38
2019-05-18 15:00:00 22.6 13 Noroeste 32 Norte 0 1014.1 -0.8 40
2019-05-18 14:00:00 21.6 14 Noroeste 32 Norte 0 1014.4 -0.4 41
2019-05-18 13:00:00 20.1 12 Noroeste 30 Noroeste 0 1014.5 -0.1 44
2019-05-18 12:00:00 19.2 13 Noroeste 31 Noroeste 0 1014.9 0.3 47
2019-05-18 11:00:00 17.8 13 Norte 33 Norte 0 1014.8 0.6 51
2019-05-18 10:00:00 16.3 10 Norte 28 Noroeste 0 1014.6 0.9 56
2019-05-18 09:00:00 14.5 6 Noroeste 29 Noroeste 0 1014.6 1.2 65
2019-05-18 08:00:00 13.7 10 Noroeste 30 Noroeste 0 1014.2 0.9 66
2019-05-18 07:00:00 13.8 10 Norte 27 Noroeste 0 1013.7 0 65
2019-05-18 06:00:00 14 12 Noroeste 29 Norte 0 1013.4 -0.9 63
2019-05-18 05:00:00 14.4 13 Noroeste 29 Norte 0 1013.3 -1.1 59
2019-05-18 04:00:00 14.6 12 Noroeste 32 Norte 0 1013.7 -0.8 59
2019-05-18 03:00:00 15.1 13 Noroeste 30 Norte 0 1014.3 -0.2 56
2019-05-18 02:00:00 15.8 11 Norte 32 Noroeste 0 1014.4 0.4 53
2019-05-18 01:00:00 16.7 15 Norte 30 Noroeste 0 1014.5 1.3 50
2019-05-18 00:00:00 17.7 16 Noroeste 32 Norte 0 1014.5 2.1 49
2019-05-17 23:00:00 18.8 10 Noroeste 23 Noroeste 0 1014 1.6 49
2019-05-17 22:00:00 20.7 12 Noroeste 32 Noroeste 0 1013.2 0.5 40
2019-05-17 21:00:00 21.9 11 Noroeste 25 Noroeste 0 1012.4 -0.6 38
2019-05-17 20:00:00 23.3 8 Noroeste 27 Norte 0 1012.4 -1 37
2019-05-17 19:00:00 23.6 10 Noroeste 31 Noroeste 0 1012.7 -1.2 36
2019-05-17 18:00:00 24 11 Noroeste 28 Norte 0 1013 -1.5 36
2019-05-17 17:00:00 23.8 10 Norte 30 Noroeste 0 1013.4 -1.5 37
2019-05-17 16:00:00 23.5 14 Norte 34 Norte 0 1013.9 -1.2 38
2019-05-17 15:00:00 22.4 12 Noroeste 30 Norte 0 1014.5 -0.8 41
2019-05-17 14:00:00 21.6 13 Norte 33 Norte 0 1014.9 -0.1 42
2019-05-17 13:00:00 20 13 Noroeste 33 Noroeste 0 1015.1 0.4 45
2019-05-17 12:00:00 18.8 10 Norte 38 Noroeste 0 1015.3 0.5 50
2019-05-17 11:00:00 17.7 15 Norte 44 Norte 0 1015 0.4 53
2019-05-17 10:00:00 16.1 13 Norte 35 Norte 0 1014.7 1 57
2019-05-17 09:00:00 14.9 10 Norte 30 Noroeste 0 1014.8 1.7 65
2019-05-17 08:00:00 14 15 Norte 35 Noroeste 0 1014.6 1.2 67
2019-05-17 07:00:00 13.8 18 Norte 38 Noroeste 0 1013.7 0.5 66
2019-05-17 06:00:00 13.7 18 Norte 41 Norte 0 1013.1 0.5 66
2019-05-17 05:00:00 14.1 17 Noroeste 43 Noroeste 0 1013.4 1.1 65
2019-05-17 04:00:00 14.6 24 Norte 49 Norte 0 1013.2 0.3 63
2019-05-17 03:00:00 15.1 24 Norte 55 Noroeste 0 1012.6 -0.2 57
2019-05-17 02:00:00 15.8 25 Norte 54 Noroeste 0 1012.3 0.2 56
2019-05-17 01:00:00 16.7 15 Noroeste 40 Norte 0 1012.9 1.5 55
2019-05-17 00:00:00 17.8 15 Norte 49 Noroeste 0 1012.8 2.4 53